Mount Sterling-Montgomery County Information

FAA: IOB - ICAO: KIOB

Mount Sterling-Montgomery County (Airport) Location

State Kentucky
County Montgomery
City Mount Sterling
Mount Sterling-Montgomery County (Airport) is 2 miles west of Mount Sterling, KY.
Latitude 38-03-29.3000N
Longitude 083-58-46.5000W
Elevation 1,019ft

Mount Sterling-Montgomery County METARs

METAR KIOB 292335Z AUTO 21004KT 10SM CLR 01/M08 A3008 RMK AO2
Altimeter 30.08"
Temperature 1.0°C (33.8°F)
Wind 210° at 4KT
Clouds Skies are clear.
Visibility 10.0mi
Time observed: 2021-11-29T23:35:00Z

Mount Sterling-Montgomery County (Airport) Details

Status Operational
Activation November 1964
Ownership Public
Usage Public
Chart CINCINNATI
ATC on-site No
Beacon schedule sunset-sunrise
Beacon color clear green

Mount Sterling-Montgomery County (Airport) Contacts

Owner MT STERLING-MONTGOMERY COUNTY
Owner address 709 AIRPORT ROAD, MT. STERLING, KY 40353
Owner phone 859-498-1000
Manager BILLY HICKS
Manager address 989 MEDICAL PARK DRIVE, MAYSVILLE, KY 41056
Manager phone (606) 584-0124

Mount Sterling-Montgomery County Radio Frequencies

Mount Sterling-Montgomery County (Airport) Radio Frequencies

UNICOM 122.8
Common traffic advisory frequency (CTAF) 122.8